Time;durP1;ratioP1;P1;durP2;ratioP2;P2;SDS_P1;SDS_P2;PMS_P1;PMS_P2;Temp;Humidity;BMP_temperature;BMP_pressure;BME280_temperature;BME280_humidity;BME280_pressure;Samples;Min_cycle;Max_cycle;Signal;HPM_P1;HPM_P2
2023/04/01 00:00:33;;;;;;;2.03;0.87;;;10.20;99.90;;;;;;5068161;28;20206;-72
2023/04/01 00:03:01;;;;;;;2.20;1.17;;;10.20;99.90;;;;;;5069560;28;20237;-72
2023/04/01 00:05:28;;;;;;;2.27;1.40;;;10.20;99.90;;;;;;5067802;28;20203;-72
2023/04/01 00:07:55;;;;;;;5.07;1.20;;;10.20;99.90;;;;;;5062361;28;20629;-72
2023/04/01 00:10:21;;;;;;;4.03;0.90;;;10.20;99.90;;;;;;5051958;28;20649;-72
2023/04/01 00:12:48;;;;;;;1.20;0.90;;;10.30;99.90;;;;;;5058928;28;20687;-72
2023/04/01 00:15:17;;;;;;;3.30;0.90;;;10.30;99.90;;;;;;5071846;28;20652;-72
2023/04/01 00:17:44;;;;;;;1.33;0.67;;;10.40;99.90;;;;;;5072814;28;20238;-72
2023/04/01 00:20:14;;;;;;;3.20;1.00;;;10.40;99.90;;;;;;5069516;28;20202;-73
2023/04/01 00:22:41;;;;;;;2.23;1.00;;;10.30;99.90;;;;;;5073242;28;20538;-75
2023/04/01 00:25:08;;;;;;;1.53;0.87;;;10.30;99.90;;;;;;5091999;28;20611;-75
2023/04/01 00:27:35;;;;;;;2.67;0.93;;;10.30;99.90;;;;;;5091265;28;20202;-75
2023/04/01 00:30:02;;;;;;;3.20;1.03;;;10.30;99.90;;;;;;5051906;28;20210;-75
2023/04/01 00:32:31;;;;;;;3.97;0.90;;;10.30;99.90;;;;;;5051725;28;20226;-75
2023/04/01 00:34:59;;;;;;;2.50;0.87;;;10.30;99.90;;;;;;5080175;28;20214;-75
2023/04/01 00:37:26;;;;;;;3.03;0.80;;;10.20;99.90;;;;;;5051581;28;20262;-75
2023/04/01 00:39:53;;;;;;;1.43;0.87;;;10.20;99.90;;;;;;5056416;28;20253;-75
2023/04/01 00:42:20;;;;;;;6.70;0.93;;;10.30;99.90;;;;;;5051986;28;20225;-75
2023/04/01 00:44:51;;;;;;;1.37;0.57;;;10.30;99.90;;;;;;5055305;28;20246;-75
2023/04/01 00:47:18;;;;;;;2.63;0.90;;;10.30;99.90;;;;;;5051036;28;20241;-75
2023/04/01 00:49:50;;;;;;;2.97;0.97;;;10.30;99.90;;;;;;5054892;28;20231;-77
2023/04/01 00:52:22;;;;;;;0.60;0.40;;;10.40;99.90;;;;;;5051574;28;20234;-76
2023/04/01 00:54:54;;;;;;;2.20;0.73;;;10.40;99.90;;;;;;5054553;28;20210;-76
2023/04/01 00:57:25;;;;;;;2.30;0.67;;;10.50;99.90;;;;;;5052275;28;20237;-76
2023/04/01 00:59:54;;;;;;;4.37;0.80;;;10.40;99.90;;;;;;5072587;28;20222;-75
2023/04/01 01:02:23;;;;;;;1.53;0.70;;;10.40;99.90;;;;;;5067755;28;20238;-75
2023/04/01 01:04:52;;;;;;;2.10;0.83;;;10.30;99.90;;;;;;5085218;28;20293;-75
2023/04/01 01:07:27;;;;;;;3.13;1.13;;;10.40;99.90;;;;;;5054520;28;20265;-76
2023/04/01 01:10:00;;;;;;;2.20;0.70;;;10.40;99.90;;;;;;5079460;28;20262;-75
2023/04/01 01:12:32;;;;;;;3.07;0.73;;;10.40;99.90;;;;;;5091691;28;20267;-75
2023/04/01 01:15:08;;;;;;;3.20;0.50;;;10.30;99.90;;;;;;5077083;28;20206;-75
2023/04/01 01:17:46;;;;;;;0.77;0.50;;;10.30;99.90;;;;;;5068024;28;20208;-75
2023/04/01 01:20:38;;;;;;;2.23;0.73;;;10.20;99.90;;;;;;5073435;28;20206;-75
2023/04/01 01:23:43;;;;;;;1.97;0.70;;;10.20;99.90;;;;;;5071217;28;20297;-76
2023/04/01 01:26:41;;;;;;;1.43;0.60;;;10.10;99.90;;;;;;5054872;28;20199;-75
2023/04/01 01:29:17;;;;;;;1.23;0.50;;;10.10;99.90;;;;;;5055143;28;20202;-75
2023/04/01 01:31:56;;;;;;;1.93;0.43;;;10.10;99.90;;;;;;5062523;28;20197;-76
2023/04/01 01:34:31;;;;;;;1.40;0.40;;;10.00;99.90;;;;;;5074885;28;20249;-76
2023/04/01 01:37:03;;;;;;;2.93;0.40;;;9.90;99.90;;;;;;5063829;28;20197;-75
2023/04/01 01:39:35;;;;;;;1.87;0.70;;;9.90;99.90;;;;;;5069243;28;20249;-75
2023/04/01 01:42:05;;;;;;;1.63;0.60;;;9.70;99.90;;;;;;5067052;28;20225;-75
2023/04/01 01:44:34;;;;;;;1.83;0.40;;;9.80;99.90;;;;;;5068833;28;20281;-75
2023/04/01 01:47:02;;;;;;;0.50;0.30;;;9.70;99.90;;;;;;5054745;28;20199;-75
2023/04/01 01:49:31;;;;;;;1.80;0.43;;;9.70;99.90;;;;;;5068342;28;20213;-75
2023/04/01 01:51:59;;;;;;;1.50;0.50;;;9.70;99.90;;;;;;5095152;28;20197;-75
2023/04/01 01:54:26;;;;;;;0.70;0.37;;;9.60;99.90;;;;;;5089038;28;20222;-75
2023/04/01 01:57:07;;;;;;;0.87;0.50;;;9.60;99.90;;;;;;5074391;28;20273;-75
2023/04/01 01:59:39;;;;;;;1.03;0.40;;;9.60;99.90;;;;;;5077758;28;20237;-75
2023/04/01 02:02:08;;;;;;;4.00;0.47;;;9.60;99.90;;;;;;5084602;28;20209;-77
2023/04/01 02:04:36;;;;;;;1.17;0.40;;;9.60;99.90;;;;;;5087949;28;20210;-73
2023/04/01 02:07:08;;;;;;;1.97;0.67;;;9.60;99.90;;;;;;5057575;28;20195;-72
2023/04/01 02:09:36;;;;;;;1.70;0.53;;;9.60;99.90;;;;;;5059626;28;20252;-73
2023/04/01 02:12:06;;;;;;;1.70;0.50;;;9.60;99.90;;;;;;5074448;28;20198;-73
2023/04/01 02:14:40;;;;;;;1.20;0.60;;;9.60;99.90;;;;;;5077471;28;20718;-72
2023/04/01 02:17:11;;;;;;;1.03;0.60;;;9.60;99.90;;;;;;5094537;28;20223;-77
2023/04/01 02:19:41;;;;;;;0.97;0.37;;;9.60;99.90;;;;;;5089321;28;20229;-77
2023/04/01 02:22:15;;;;;;;1.97;0.90;;;9.50;99.90;;;;;;5074184;28;20272;-77
2023/04/01 02:24:45;;;;;;;1.10;0.40;;;9.60;99.90;;;;;;5074083;28;20230;-77
2023/04/01 02:27:13;;;;;;;1.10;0.63;;;9.70;99.90;;;;;;5053787;28;20203;-77
2023/04/01 02:29:40;;;;;;;0.50;0.43;;;9.70;99.90;;;;;;5059768;28;20221;-77
2023/04/01 02:32:08;;;;;;;0.97;0.50;;;9.70;99.90;;;;;;5094301;28;20234;-77
2023/04/01 02:34:35;;;;;;;2.57;0.70;;;9.80;99.90;;;;;;5091200;28;20642;-76
2023/04/01 02:37:03;;;;;;;2.87;0.97;;;9.80;99.90;;;;;;5054357;28;20620;-76
2023/04/01 02:39:31;;;;;;;1.97;0.60;;;9.70;99.90;;;;;;5054477;28;20240;-76
2023/04/01 02:41:58;;;;;;;3.17;0.63;;;9.70;99.90;;;;;;5053962;28;20199;-76
2023/04/01 02:44:25;;;;;;;2.63;0.50;;;9.70;99.90;;;;;;5053741;28;20207;-75
2023/04/01 02:46:52;;;;;;;0.87;0.40;;;9.60;99.90;;;;;;5071883;28;20202;-76
2023/04/01 02:49:19;;;;;;;1.83;0.60;;;9.70;99.90;;;;;;5072984;28;20678;-76
2023/04/01 02:51:46;;;;;;;2.53;0.60;;;9.50;99.90;;;;;;5073935;28;20335;-75
2023/04/01 02:54:13;;;;;;;1.77;0.87;;;9.50;99.90;;;;;;5080575;28;20226;-75
2023/04/01 02:56:42;;;;;;;0.83;0.40;;;9.50;99.90;;;;;;5072696;28;20202;-73
2023/04/01 02:59:09;;;;;;;0.77;0.37;;;9.60;99.90;;;;;;5077737;28;20289;-73
2023/04/01 03:01:36;;;;;;;1.53;0.43;;;9.60;99.90;;;;;;5073090;28;20652;-73
2023/04/01 03:04:03;;;;;;;0.87;0.40;;;9.60;99.90;;;;;;5076088;28;20203;-73
2023/04/01 03:06:30;;;;;;;0.80;0.60;;;9.60;99.90;;;;;;5065259;28;20256;-72
2023/04/01 03:08:57;;;;;;;1.50;0.43;;;9.60;99.90;;;;;;5085506;28;20202;-72
2023/04/01 03:11:25;;;;;;;2.37;1.33;;;9.60;99.90;;;;;;5065674;28;20203;-73
2023/04/01 03:13:54;;;;;;;2.13;0.60;;;9.60;99.90;;;;;;5066044;28;20689;-73
2023/04/01 03:16:21;;;;;;;1.73;1.13;;;9.50;99.90;;;;;;5071550;28;20619;-73
2023/04/01 03:18:49;;;;;;;2.87;0.80;;;9.50;99.90;;;;;;5082509;28;20203;-72
2023/04/01 03:21:17;;;;;;;0.77;0.60;;;9.50;99.90;;;;;;5069262;28;20908;-73
2023/04/01 03:23:45;;;;;;;1.40;0.47;;;9.50;99.90;;;;;;5071926;28;20242;-72
2023/04/01 03:26:11;;;;;;;2.23;0.40;;;9.50;99.90;;;;;;5054894;28;20202;-73
2023/04/01 03:28:38;;;;;;;0.70;0.70;;;9.60;99.90;;;;;;5083385;28;20282;-75
2023/04/01 03:31:07;;;;;;;1.43;0.60;;;9.70;99.90;;;;;;5084549;28;20301;-75
2023/04/01 03:33:34;;;;;;;2.40;0.70;;;9.60;99.90;;;;;;5052955;28;20304;-75
2023/04/01 03:36:01;;;;;;;2.13;0.53;;;9.60;99.90;;;;;;5063027;28;20284;-75
2023/04/01 03:38:28;;;;;;;2.40;0.57;;;9.70;99.90;;;;;;5068825;28;20238;-75
2023/04/01 03:40:55;;;;;;;0.47;0.40;;;9.70;99.90;;;;;;5074903;28;20614;-75
2023/04/01 03:43:22;;;;;;;0.80;0.60;;;9.70;99.90;;;;;;5072342;28;20252;-75
2023/04/01 03:45:51;;;;;;;0.53;0.37;;;9.80;99.90;;;;;;5092816;28;20541;-75
2023/04/01 03:48:19;;;;;;;1.10;0.67;;;9.70;99.90;;;;;;5090946;28;20232;-75
2023/04/01 03:50:46;;;;;;;1.13;0.53;;;9.80;99.90;;;;;;5072763;28;20575;-75
2023/04/01 03:53:15;;;;;;;0.77;0.60;;;9.70;99.90;;;;;;5070798;28;20274;-75
2023/04/01 03:55:42;;;;;;;1.80;0.50;;;9.80;99.90;;;;;;5072440;28;20237;-75
2023/04/01 03:58:09;;;;;;;1.73;0.50;;;9.80;99.90;;;;;;5072040;28;20248;-75
2023/04/01 04:00:36;;;;;;;0.50;0.40;;;9.80;99.90;;;;;;5074365;28;20291;-75
2023/04/01 04:03:03;;;;;;;0.93;0.47;;;9.90;99.90;;;;;;5071953;28;20202;-75
2023/04/01 04:05:32;;;;;;;1.43;0.57;;;9.90;99.90;;;;;;5072954;28;20206;-75
2023/04/01 04:07:59;;;;;;;2.97;0.57;;;9.80;99.90;;;;;;5071445;28;20289;-75
2023/04/01 04:10:26;;;;;;;0.87;0.50;;;9.70;99.90;;;;;;5065835;28;20255;-75
2023/04/01 04:12:53;;;;;;;1.90;0.60;;;9.60;99.90;;;;;;5092427;28;20255;-75
2023/04/01 04:15:20;;;;;;;2.47;0.60;;;9.60;99.90;;;;;;5081687;28;20317;-75
2023/04/01 04:17:47;;;;;;;1.17;0.70;;;9.60;99.90;;;;;;5092055;28;20662;-75
2023/04/01 04:20:15;;;;;;;0.70;0.50;;;9.60;99.90;;;;;;5073743;28;20194;-75
2023/04/01 04:22:43;;;;;;;0.87;0.70;;;9.60;99.90;;;;;;5069959;28;20245;-75
2023/04/01 04:25:10;;;;;;;1.20;0.70;;;9.60;99.90;;;;;;5063388;28;20719;-75
2023/04/01 04:27:37;;;;;;;1.23;0.80;;;9.60;99.90;;;;;;5070536;28;20260;-75
2023/04/01 04:30:07;;;;;;;0.40;0.40;;;9.70;99.90;;;;;;5076733;28;20202;-75
2023/04/01 04:32:35;;;;;;;1.00;0.50;;;9.70;99.90;;;;;;5092290;28;20212;-76
2023/04/01 04:35:02;;;;;;;2.20;0.50;;;9.60;99.90;;;;;;5081234;28;20304;-75
2023/04/01 04:37:28;;;;;;;2.20;0.80;;;9.60;99.90;;;;;;5085190;28;20230;-75
2023/04/01 04:39:57;;;;;;;1.30;0.63;;;9.60;99.90;;;;;;5058914;28;20631;-75
2023/04/01 04:42:24;;;;;;;3.43;0.70;;;9.70;99.90;;;;;;5052203;28;20210;-73
2023/04/01 04:44:51;;;;;;;2.23;0.70;;;9.60;99.90;;;;;;5051862;28;20230;-72
2023/04/01 04:47:18;;;;;;;4.27;0.60;;;9.60;99.90;;;;;;5056892;28;20709;-72
2023/04/01 04:49:45;;;;;;;1.27;0.63;;;9.60;99.90;;;;;;5091835;28;20201;-72
2023/04/01 04:52:12;;;;;;;1.90;0.60;;;9.60;99.90;;;;;;5089387;28;20241;-73
2023/04/01 04:54:39;;;;;;;1.50;0.70;;;9.60;99.90;;;;;;5081590;28;20642;-73
2023/04/01 04:57:07;;;;;;;1.33;0.63;;;9.60;99.90;;;;;;5071459;28;20210;-72
2023/04/01 04:59:34;;;;;;;0.73;0.53;;;9.60;99.90;;;;;;5062673;28;20229;-73
2023/04/01 05:02:02;;;;;;;1.83;0.63;;;9.60;99.90;;;;;;5071344;28;20252;-73
2023/04/01 05:04:29;;;;;;;3.43;1.00;;;9.50;99.90;;;;;;5071447;28;20277;-73
2023/04/01 05:06:56;;;;;;;2.90;0.80;;;9.50;99.90;;;;;;5054536;28;20606;-73
2023/04/01 05:09:23;;;;;;;1.90;0.60;;;9.40;99.90;;;;;;5071260;28;20230;-73
2023/04/01 05:11:50;;;;;;;2.37;0.60;;;9.40;99.90;;;;;;5052444;28;20236;-73
2023/04/01 05:14:18;;;;;;;5.10;1.90;;;9.40;99.90;;;;;;5072094;28;20277;-73
2023/04/01 05:16:45;;;;;;;1.00;0.90;;;9.40;99.90;;;;;;5076271;28;20186;-73
2023/04/01 05:19:12;;;;;;;3.27;1.60;;;9.40;99.90;;;;;;5064995;28;20231;-73
2023/04/01 05:21:39;;;;;;;0.77;0.40;;;9.30;99.90;;;;;;5060475;28;20248;-73
2023/04/01 05:24:10;;;;;;;0.90;0.50;;;9.30;99.90;;;;;;5067110;28;20206;-73
2023/04/01 05:26:37;;;;;;;0.87;0.47;;;9.30;99.90;;;;;;5068634;28;20217;-73
2023/04/01 05:29:04;;;;;;;1.20;0.77;;;9.40;99.90;;;;;;5066106;28;20286;-73
2023/04/01 05:31:33;;;;;;;1.00;0.73;;;9.40;99.90;;;;;;5064704;28;20206;-73
2023/04/01 05:34:00;;;;;;;0.77;0.57;;;9.40;99.90;;;;;;5062253;28;20258;-73
2023/04/01 05:36:27;;;;;;;2.10;0.80;;;9.40;99.90;;;;;;5061082;28;20263;-73
2023/04/01 05:38:56;;;;;;;1.47;0.70;;;9.30;99.90;;;;;;5066011;28;20237;-73
2023/04/01 05:41:23;;;;;;;1.90;0.70;;;9.40;99.90;;;;;;5061327;28;20199;-73
2023/04/01 05:43:50;;;;;;;2.80;0.77;;;9.40;99.90;;;;;;5066907;28;20249;-73
2023/04/01 05:46:17;;;;;;;1.87;1.00;;;9.40;99.90;;;;;;5059140;28;20251;-73
2023/04/01 05:48:46;;;;;;;0.77;0.77;;;9.40;99.90;;;;;;5065846;28;20628;-73
2023/04/01 05:51:14;;;;;;;2.60;1.10;;;9.50;99.90;;;;;;5062893;28;20618;-73
2023/04/01 05:53:41;;;;;;;2.43;0.83;;;9.60;99.90;;;;;;5060564;28;20214;-73
2023/04/01 05:56:09;;;;;;;2.83;1.60;;;9.50;99.90;;;;;;5067920;28;20645;-73
2023/04/01 05:58:36;;;;;;;2.00;1.53;;;9.60;99.90;;;;;;5066755;28;20205;-73
2023/04/01 06:01:04;;;;;;;4.37;2.43;;;9.60;99.90;;;;;;5061275;28;20231;-73
2023/04/01 06:03:31;;;;;;;3.87;1.33;;;9.70;99.90;;;;;;5062496;28;20225;-73
2023/04/01 06:06:00;;;;;;;0.70;0.70;;;9.70;99.90;;;;;;5061046;28;20261;-73
2023/04/01 06:08:31;;;;;;;3.03;1.33;;;9.80;99.90;;;;;;5059870;28;20290;-72
2023/04/01 06:11:13;;;;;;;3.17;1.00;;;9.80;99.90;;;;;;5060625;28;20551;-73
2023/04/01 06:14:05;;;;;;;2.70;0.90;;;9.90;99.90;;;;;;5071429;28;20648;-73
2023/04/01 06:16:39;;;;;;;1.03;0.93;;;9.90;99.90;;;;;;5058155;28;20563;-73
2023/04/01 06:19:26;;;;;;;1.07;1.00;;;10.00;99.90;;;;;;5061638;28;20201;-73
2023/04/01 06:22:28;;;;;;;1.30;1.10;;;10.00;99.90;;;;;;5068068;28;20230;-73
2023/04/01 06:25:23;;;;;;;2.67;1.60;;;10.00;99.90;;;;;;5057671;28;20269;-72
2023/04/01 06:28:01;;;;;;;1.40;1.30;;;10.10;99.90;;;;;;5064155;28;20285;-73
2023/04/01 06:30:41;;;;;;;4.87;1.60;;;10.10;99.90;;;;;;5066616;28;20203;-73
2023/04/01 06:33:33;;;;;;;1.00;0.90;;;10.30;99.90;;;;;;5058812;28;20286;-72
2023/04/01 06:36:16;;;;;;;6.13;2.67;;;10.30;99.90;;;;;;5037579;28;20805;-73
2023/04/01 06:39:19;;;;;;;2.07;1.20;;;10.30;99.90;;;;;;5066278;28;20194;-73
2023/04/01 06:42:18;;;;;;;3.23;1.20;;;10.40;99.90;;;;;;5048952;28;20203;-73
2023/04/01 06:44:54;;;;;;;2.23;0.77;;;10.40;99.90;;;;;;5065393;28;20195;-73
2023/04/01 06:47:34;;;;;;;3.03;1.73;;;10.50;99.90;;;;;;5066941;28;20299;-78
2023/04/01 06:50:08;;;;;;;1.20;0.83;;;10.50;99.90;;;;;;5055941;28;20260;-79
2023/04/01 06:52:46;;;;;;;3.57;0.50;;;10.50;99.90;;;;;;5067679;28;20196;-74
2023/04/01 06:55:27;;;;;;;2.20;0.80;;;10.50;99.90;;;;;;5064948;28;20338;-74
2023/04/01 06:57:57;;;;;;;1.63;0.87;;;10.50;99.90;;;;;;5074152;28;20607;-74
2023/04/01 07:00:29;;;;;;;1.43;0.60;;;10.50;99.90;;;;;;5072544;28;20202;-72
2023/04/01 07:03:05;;;;;;;3.73;0.80;;;10.50;99.90;;;;;;5060492;28;20234;-77
2023/04/01 07:05:34;;;;;;;1.27;0.70;;;10.50;99.90;;;;;;5068803;28;20709;-77
2023/04/01 07:08:05;;;;;;;2.00;0.70;;;10.50;99.90;;;;;;5070488;28;20194;-79
2023/04/01 07:10:40;;;;;;;2.37;0.90;;;10.60;99.90;;;;;;5066024;28;20195;-78
2023/04/01 07:13:15;;;;;;;1.53;0.60;;;10.70;99.90;;;;;;5052558;28;20233;-78
2023/04/01 07:15:45;;;;;;;1.50;0.67;;;10.60;99.90;;;;;;5066517;28;20449;-78
2023/04/01 07:18:17;;;;;;;1.20;0.83;;;10.70;99.90;;;;;;5053155;28;20213;-78
2023/04/01 07:20:45;;;;;;;1.23;0.70;;;10.70;99.90;;;;;;5073157;28;20249;-78
2023/04/01 07:23:21;;;;;;;1.97;0.63;;;10.70;99.90;;;;;;5066539;28;20265;-79
2023/04/01 07:25:54;;;;;;;2.60;0.90;;;10.90;99.90;;;;;;5053181;28;20203;-78
2023/04/01 07:28:24;;;;;;;3.00;0.80;;;11.10;99.90;;;;;;5054919;28;20207;-78
2023/04/01 07:31:03;;;;;;;1.53;0.80;;;11.10;99.90;;;;;;5091855;28;20202;-78
2023/04/01 07:33:38;;;;;;;1.03;0.80;;;11.10;99.90;;;;;;5052149;28;20229;-79
2023/04/01 07:36:11;;;;;;;2.80;1.10;;;11.30;99.90;;;;;;5034756;28;20250;-79
2023/04/01 07:38:51;;;;;;;2.03;0.70;;;11.40;99.90;;;;;;5052763;28;20207;-77
2023/04/01 07:41:27;;;;;;;1.40;0.50;;;11.20;99.90;;;;;;5052879;28;20241;-78
2023/04/01 07:44:07;;;;;;;0.80;0.50;;;11.10;99.90;;;;;;5076319;28;20233;-79
2023/04/01 07:46:50;;;;;;;0.70;0.50;;;11.10;99.90;;;;;;5092454;28;20197;-79
2023/04/01 07:49:23;;;;;;;0.80;0.70;;;11.30;99.90;;;;;;5070536;28;20202;-76
2023/04/01 07:52:00;;;;;;;1.00;0.77;;;11.40;99.90;;;;;;5091659;28;20200;-76
2023/04/01 07:54:39;;;;;;;2.63;0.80;;;11.30;99.90;;;;;;5063312;28;20238;-76
2023/04/01 07:57:13;;;;;;;2.40;0.43;;;11.40;99.90;;;;;;5050977;28;20202;-77
2023/04/01 07:59:49;;;;;;;1.40;0.60;;;11.30;99.90;;;;;;5064878;28;20656;-75
2023/04/01 08:02:29;;;;;;;0.80;0.40;;;11.40;99.90;;;;;;5071452;28;20197;-80
2023/04/01 08:05:10;;;;;;;1.27;0.60;;;11.20;99.90;;;;;;5072273;28;20264;-75
2023/04/01 08:07:45;;;;;;;1.57;0.70;;;11.30;99.90;;;;;;5053887;28;20202;-79
2023/04/01 08:10:18;;;;;;;2.47;0.87;;;11.30;99.90;;;;;;5071465;28;20205;-79
2023/04/01 08:12:54;;;;;;;1.73;0.50;;;11.40;99.90;;;;;;5072245;28;20198;-79
2023/04/01 08:15:27;;;;;;;0.87;0.60;;;11.60;99.90;;;;;;5053757;28;20269;-79
2023/04/01 08:18:12;;;;;;;1.10;0.50;;;11.70;99.90;;;;;;5050978;28;20203;-79
2023/04/01 08:20:45;;;;;;;0.50;0.50;;;11.70;99.90;;;;;;5052149;28;20203;-80
2023/04/01 08:23:16;;;;;;;0.50;0.50;;;11.90;99.90;;;;;;5058311;28;20660;-79
2023/04/01 08:25:49;;;;;;;0.87;0.40;;;11.70;99.90;;;;;;5072328;28;20202;-79
2023/04/01 08:28:22;;;;;;;0.80;0.40;;;11.70;99.90;;;;;;5071024;28;20214;-79
2023/04/01 08:30:54;;;;;;;0.70;0.60;;;11.70;99.90;;;;;;5071754;28;20198;-79
2023/04/01 08:33:26;;;;;;;0.60;0.60;;;11.80;99.90;;;;;;5051953;28;20253;-79
2023/04/01 08:35:59;;;;;;;0.43;0.33;;;12.00;99.90;;;;;;5050906;28;20302;-79
2023/04/01 08:38:31;;;;;;;1.80;0.50;;;12.10;99.90;;;;;;5063177;28;20253;-79
2023/04/01 08:41:06;;;;;;;1.60;0.63;;;11.90;99.90;;;;;;5092113;28;20201;-79
2023/04/01 08:44:15;;;;;;;2.30;1.10;;;11.90;99.90;;;;;;5090570;28;20691;-78
2023/04/01 08:47:19;;;;;;;3.30;1.10;;;12.00;99.90;;;;;;5026238;28;20594;-79
2023/04/01 08:49:59;;;;;;;1.40;0.50;;;12.10;99.90;;;;;;5072186;28;20205;-78
2023/04/01 08:52:36;;;;;;;0.47;0.30;;;12.20;99.90;;;;;;5052125;28;20700;-75
2023/04/01 08:55:21;;;;;;;0.80;0.43;;;12.40;99.90;;;;;;5069041;28;20217;-78
2023/04/01 08:58:07;;;;;;;0.63;0.40;;;12.40;99.90;;;;;;5079089;28;20198;-78
2023/04/01 09:00:43;;;;;;;0.83;0.80;;;12.40;99.90;;;;;;5076640;28;20213;-78
2023/04/01 09:03:37;;;;;;;0.93;0.83;;;12.60;99.90;;;;;;5035976;28;20253;-78
2023/04/01 09:06:27;;;;;;;1.47;0.50;;;12.50;99.90;;;;;;5068208;28;20465;-75
2023/04/01 09:09:21;;;;;;;2.47;0.70;;;12.50;99.90;;;;;;5065758;28;20234;-74
2023/04/01 09:12:12;;;;;;;1.17;0.33;;;12.60;99.90;;;;;;5014045;28;20253;-76
2023/04/01 09:15:00;;;;;;;1.00;0.40;;;12.70;99.90;;;;;;5057375;28;20263;-76
2023/04/01 09:17:44;;;;;;;1.43;0.43;;;12.80;99.90;;;;;;5051544;28;20217;-76
2023/04/01 09:20:46;;;;;;;0.60;0.40;;;12.70;99.90;;;;;;5053500;28;20631;-76
2023/04/01 09:23:47;;;;;;;0.50;0.50;;;12.80;99.90;;;;;;5045431;28;20198;-77
2023/04/01 09:26:29;;;;;;;0.30;0.30;;;12.60;99.90;;;;;;5058948;28;20222;-77
2023/04/01 09:29:06;;;;;;;0.50;0.30;;;12.60;99.90;;;;;;5050990;28;20229;-77
2023/04/01 09:31:59;;;;;;;1.30;0.30;;;12.80;99.90;;;;;;5066504;28;20198;-76
2023/04/01 09:34:41;;;;;;;1.53;0.50;;;12.60;99.90;;;;;;5062282;28;20210;-76
2023/04/01 09:37:22;;;;;;;1.10;0.43;;;12.60;99.90;;;;;;5068784;28;20675;-77
2023/04/01 09:40:10;;;;;;;2.07;0.53;;;12.60;99.90;;;;;;5060724;28;20365;-77
2023/04/01 09:42:46;;;;;;;1.70;0.33;;;12.80;99.90;;;;;;5063172;28;20299;-77
2023/04/01 09:45:30;;;;;;;0.60;0.40;;;12.70;99.90;;;;;;5058555;28;20229;-77
2023/04/01 09:48:11;;;;;;;0.90;0.47;;;12.80;99.90;;;;;;5072207;28;20209;-77
2023/04/01 09:50:48;;;;;;;0.40;0.40;;;12.80;99.90;;;;;;5046677;28;20647;-77
2023/04/01 09:53:29;;;;;;;0.83;0.50;;;12.70;99.90;;;;;;5067164;28;20573;-76
2023/04/01 09:56:40;;;;;;;0.83;0.50;;;12.80;99.90;;;;;;5069272;28;20304;-76
2023/04/01 09:59:38;;;;;;;0.60;0.40;;;12.80;99.90;;;;;;5048982;28;20257;-77
2023/04/01 10:02:44;;;;;;;0.40;0.40;;;13.10;99.90;;;;;;5071023;28;20206;-77
2023/04/01 10:05:50;;;;;;;0.87;0.40;;;12.90;99.90;;;;;;5054161;28;20202;-77
2023/04/01 10:08:51;;;;;;;0.40;0.30;;;13.00;99.90;;;;;;5046427;28;20241;-74
2023/04/01 10:12:01;;;;;;;1.90;0.40;;;12.90;99.90;;;;;;5055093;28;20249;-74
2023/04/01 10:15:01;;;;;;;1.03;0.30;;;12.90;99.90;;;;;;5066516;28;22247;-74
2023/04/01 10:17:55;;;;;;;0.53;0.50;;;12.80;99.90;;;;;;5032036;28;20645;-80
2023/04/01 10:20:50;;;;;;;1.40;0.40;;;13.00;99.90;;;;;;5065383;28;20653;-79
2023/04/01 10:23:39;;;;;;;1.67;0.40;;;12.90;99.90;;;;;;5072393;28;20575;-77
2023/04/01 10:26:42;;;;;;;1.07;0.40;;;13.00;99.90;;;;;;5066631;28;20218;-79
2023/04/01 10:29:33;;;;;;;0.30;0.30;;;13.10;99.90;;;;;;5061983;28;20199;-77
2023/04/01 10:32:36;;;;;;;0.33;0.30;;;12.90;99.90;;;;;;5065859;28;20618;-79
2023/04/01 10:35:48;;;;;;;1.10;0.47;;;13.20;99.90;;;;;;5063256;28;20214;-74
2023/04/01 10:38:43;;;;;;;2.67;0.50;;;12.70;99.90;;;;;;5066337;28;20199;-74
2023/04/01 10:42:04;;;;;;;0.40;0.40;;;13.10;99.90;;;;;;5074869;28;20203;-74
2023/04/01 10:45:00;;;;;;;0.63;0.40;;;13.40;99.90;;;;;;5053708;28;20207;-74
2023/04/01 10:47:41;;;;;;;0.70;0.60;;;13.50;99.90;;;;;;5059893;28;20209;-74
2023/04/01 10:50:24;;;;;;;0.83;0.60;;;13.40;99.90;;;;;;5063839;28;20290;-74
2023/04/01 10:53:37;;;;;;;0.90;0.37;;;13.40;99.90;;;;;;5065034;28;20212;-74
2023/04/01 10:56:39;;;;;;;2.13;0.63;;;13.40;99.90;;;;;;5061630;28;20591;-74
2023/04/01 10:59:43;;;;;;;1.17;0.60;;;13.10;99.90;;;;;;5047545;28;20202;-74
2023/04/01 11:02:58;;;;;;;1.30;0.43;;;13.40;99.90;;;;;;5063148;28;20248;-76
2023/04/01 11:05:58;;;;;;;1.23;0.70;;;13.20;99.90;;;;;;5032937;28;20242;-77
2023/04/01 11:09:08;;;;;;;1.63;0.60;;;13.40;99.90;;;;;;5052139;28;20243;-76
2023/04/01 11:12:06;;;;;;;1.03;0.63;;;13.30;99.90;;;;;;5068543;28;20201;-77
2023/04/01 11:14:54;;;;;;;0.87;0.73;;;13.10;99.90;;;;;;5070406;28;20250;-77
2023/04/01 11:18:12;;;;;;;1.00;0.73;;;13.00;99.90;;;;;;5046982;28;20288;-76
2023/04/01 11:21:01;;;;;;;0.87;0.60;;;13.00;99.90;;;;;;5070634;28;20230;-76
2023/04/01 11:23:47;;;;;;;2.27;0.87;;;13.10;99.90;;;;;;5064571;28;20226;-74
2023/04/01 11:26:30;;;;;;;0.73;0.70;;;13.10;99.90;;;;;;5060240;28;20201;-74
2023/04/01 11:29:42;;;;;;;1.67;0.50;;;12.90;99.90;;;;;;5055684;28;20226;-74
2023/04/01 11:32:21;;;;;;;1.70;0.77;;;13.00;99.90;;;;;;4989420;28;20197;-74
2023/04/01 11:35:20;;;;;;;1.63;1.30;;;13.00;99.90;;;;;;5041556;28;20571;-76
2023/04/01 11:37:55;;;;;;;2.20;1.13;;;13.30;99.90;;;;;;5065449;28;20231;-77
2023/04/01 11:40:29;;;;;;;0.70;0.60;;;13.20;99.90;;;;;;5065739;28;20202;-77
2023/04/01 11:43:01;;;;;;;0.60;0.60;;;13.50;99.90;;;;;;5069082;28;20211;-76
2023/04/01 11:45:37;;;;;;;2.33;0.57;;;13.20;99.90;;;;;;5068942;28;20241;-77
2023/04/01 11:48:30;;;;;;;1.27;0.97;;;13.00;99.90;;;;;;5065878;28;20206;-77
2023/04/01 11:51:22;;;;;;;1.20;0.95;;;13.20;99.90;;;;;;5072130;28;20272;-77
2023/04/01 11:53:59;;;;;;;2.37;0.70;;;13.10;99.90;;;;;;5061716;28;20247;-77
2023/04/01 11:56:40;;;;;;;1.70;1.17;;;13.20;99.90;;;;;;5045693;28;20257;-76
2023/04/01 11:59:48;;;;;;;0.80;0.80;;;13.20;99.90;;;;;;5044049;28;20230;-77
2023/04/01 12:02:26;;;;;;;0.60;0.60;;;13.20;99.90;;;;;;5046941;28;20619;-77
2023/04/01 12:05:03;;;;;;;0.50;0.50;;;13.30;99.90;;;;;;5061645;28;20300;-76
2023/04/01 12:07:53;;;;;;;0.63;0.50;;;13.50;99.90;;;;;;5039389;28;20241;-77
2023/04/01 12:10:23;;;;;;;1.73;0.70;;;13.20;99.90;;;;;;5046779;28;20211;-77
2023/04/01 12:13:00;;;;;;;0.63;0.63;;;13.30;99.90;;;;;;5064263;28;20212;-77
2023/04/01 12:15:37;;;;;;;0.87;0.57;;;13.60;99.90;;;;;;5055074;28;20295;-76
2023/04/01 12:18:13;;;;;;;1.03;0.73;;;13.30;99.90;;;;;;5050056;28;20281;-76
2023/04/01 12:20:51;;;;;;;0.50;0.40;;;13.50;99.90;;;;;;5044924;28;20244;-76
2023/04/01 12:23:42;;;;;;;0.97;0.50;;;13.50;99.90;;;;;;5068493;28;20220;-76
2023/04/01 12:26:31;;;;;;;0.87;0.73;;;13.30;99.90;;;;;;5042965;28;20278;-77
2023/04/01 12:29:16;;;;;;;2.37;0.60;;;13.50;99.90;;;;;;5073169;28;20203;-77
2023/04/01 12:31:53;;;;;;;0.83;0.60;;;13.10;99.90;;;;;;5047009;28;20199;-76
2023/04/01 12:34:44;;;;;;;0.77;0.70;;;13.10;99.90;;;;;;5046403;28;20202;-77
2023/04/01 12:37:20;;;;;;;1.53;0.70;;;13.00;99.90;;;;;;5060686;28;20285;-77
2023/04/01 12:40:02;;;;;;;1.50;0.90;;;13.20;99.90;;;;;;5059277;28;20656;-76
2023/04/01 12:42:53;;;;;;;0.83;0.50;;;13.10;99.90;;;;;;5073905;28;20198;-76
2023/04/01 12:45:31;;;;;;;1.43;0.40;;;13.00;99.90;;;;;;5077588;28;20572;-76
2023/04/01 12:48:25;;;;;;;0.30;0.30;;;12.90;99.90;;;;;;5066350;28;20197;-76
2023/04/01 12:51:10;;;;;;;0.90;0.90;;;12.90;99.90;;;;;;5074131;28;20289;-76
2023/04/01 12:53:56;;;;;;;0.30;0.30;;;12.70;99.90;;;;;;5060304;28;20298;-76
2023/04/01 12:56:35;;;;;;;1.27;0.63;;;12.70;99.90;;;;;;5063201;28;20226;-77
2023/04/01 12:59:27;;;;;;;0.70;0.70;;;13.00;99.90;;;;;;5071061;28;20323;-77
2023/04/01 13:02:03;;;;;;;1.63;0.97;;;12.80;99.90;;;;;;5053745;28;20205;-77
2023/04/01 13:05:17;;;;;;;0.83;0.83;;;12.70;99.90;;;;;;5055657;28;20206;-77
2023/04/01 13:07:58;;;;;;;1.53;0.90;;;12.50;99.90;;;;;;5066503;28;20201;-77
2023/04/01 13:10:39;;;;;;;0.30;0.30;;;12.60;99.90;;;;;;5057342;28;20211;-76
2023/04/01 13:13:47;;;;;;;0.70;0.50;;;12.70;99.90;;;;;;5053400;28;20200;-78
2023/04/01 13:16:17;;;;;;;0.87;0.50;;;12.80;99.90;;;;;;5015713;28;20230;-78
2023/04/01 13:18:57;;;;;;;0.60;0.50;;;12.70;99.90;;;;;;5059033;28;20194;-77
2023/04/01 13:21:38;;;;;;;1.23;1.13;;;12.80;99.90;;;;;;5073068;28;20198;-77
2023/04/01 13:24:16;;;;;;;0.90;0.70;;;12.90;99.90;;;;;;5065391;28;20206;-77
2023/04/01 13:26:55;;;;;;;0.80;0.80;;;13.00;99.90;;;;;;5073332;28;20198;-76
2023/04/01 13:29:26;;;;;;;0.90;0.90;;;12.80;99.90;;;;;;5072280;28;20517;-77
2023/04/01 13:32:07;;;;;;;1.13;0.90;;;13.00;99.90;;;;;;5065669;28;20195;-77
2023/04/01 13:34:48;;;;;;;0.80;0.70;;;12.70;99.90;;;;;;5067610;28;20286;-77
2023/04/01 13:37:28;;;;;;;1.40;1.30;;;12.60;99.90;;;;;;5070818;28;20215;-77
2023/04/01 13:40:12;;;;;;;3.33;1.70;;;12.40;99.90;;;;;;5071746;28;20202;-76
2023/04/01 13:42:49;;;;;;;3.13;1.60;;;12.20;99.90;;;;;;5066094;28;20199;-79